Time;durP1;ratioP1;P1;durP2;ratioP2;P2;SDS_P1;SDS_P2;PMS_P1;PMS_P2;Temp;Humidity;BMP_temperature;BMP_pressure;BME280_temperature;BME280_humidity;BME280_pressure;Samples;Min_cycle;Max_cycle;Signal;HPM_P1;HPM_P2
2021/10/04 00:00:56;;;;;;;2.03;0.95;;;17.90;65.40;;;;;;5135607;27;20370;-60
2021/10/04 00:03:22;;;;;;;1.63;0.70;;;17.90;65.40;;;;;;5135445;27;20027;-59
2021/10/04 00:05:48;;;;;;;3.40;1.10;;;17.80;65.50;;;;;;5135231;27;20419;-58
2021/10/04 00:08:13;;;;;;;2.45;1.08;;;17.90;65.50;;;;;;5116652;27;20031;-59
2021/10/04 00:10:39;;;;;;;1.63;0.85;;;17.80;65.50;;;;;;5135190;27;20033;-60
2021/10/04 00:13:05;;;;;;;2.30;1.00;;;17.90;65.40;;;;;;5135261;27;20043;-59
2021/10/04 00:15:31;;;;;;;1.75;0.77;;;17.80;65.40;;;;;;5135017;27;20119;-59
2021/10/04 00:17:58;;;;;;;2.40;1.05;;;17.90;65.40;;;;;;5134856;27;20068;-59
2021/10/04 00:20:26;;;;;;;2.08;1.00;;;17.80;65.40;;;;;;5135275;27;20057;-59
2021/10/04 00:22:52;;;;;;;2.47;1.20;;;17.80;65.40;;;;;;5135163;27;20023;-60
2021/10/04 00:25:17;;;;;;;2.13;1.20;;;17.80;65.40;;;;;;5134833;27;20539;-59
2021/10/04 00:27:43;;;;;;;2.83;1.05;;;17.80;65.40;;;;;;5134640;27;20106;-59
2021/10/04 00:30:09;;;;;;;3.17;1.15;;;17.80;65.40;;;;;;5134709;27;20079;-59
2021/10/04 00:32:39;;;;;;;1.85;1.02;;;17.80;65.40;;;;;;5134610;27;20030;-59
2021/10/04 00:35:06;;;;;;;1.67;1.00;;;17.80;65.50;;;;;;5134553;27;20023;-59
2021/10/04 00:37:32;;;;;;;1.80;0.90;;;17.80;65.50;;;;;;5134563;27;20027;-60
2021/10/04 00:39:58;;;;;;;2.63;1.08;;;17.80;65.40;;;;;;5134356;27;20047;-59
2021/10/04 00:42:24;;;;;;;2.25;0.82;;;17.80;65.40;;;;;;5134420;27;20102;-59
2021/10/04 00:44:51;;;;;;;2.00;0.90;;;17.80;65.50;;;;;;5116041;27;20027;-59
2021/10/04 00:47:18;;;;;;;1.85;0.90;;;17.80;65.50;;;;;;5134507;27;20386;-59
2021/10/04 00:49:45;;;;;;;1.52;0.80;;;17.80;65.40;;;;;;5134347;27;20034;-59
2021/10/04 00:52:11;;;;;;;1.58;0.73;;;17.80;65.40;;;;;;5134746;27;20098;-58
2021/10/04 00:54:37;;;;;;;2.10;1.05;;;17.80;65.40;;;;;;5134246;27;20023;-60
2021/10/04 00:57:03;;;;;;;1.75;1.00;;;17.80;65.50;;;;;;5134324;27;20112;-59
2021/10/04 00:59:29;;;;;;;1.90;1.00;;;17.80;65.40;;;;;;5134534;27;20436;-59
2021/10/04 01:01:55;;;;;;;3.10;1.00;;;17.80;65.50;;;;;;5134325;27;20027;-59
2021/10/04 01:04:25;;;;;;;1.75;0.77;;;17.80;65.40;;;;;;5134235;27;20050;-59
2021/10/04 01:06:52;;;;;;;1.83;0.80;;;17.80;65.50;;;;;;5134228;27;20473;-59
2021/10/04 01:09:18;;;;;;;1.55;0.90;;;17.70;65.40;;;;;;5134252;27;20027;-59
2021/10/04 01:11:43;;;;;;;1.67;0.88;;;17.80;65.40;;;;;;5134205;27;20424;-59
2021/10/04 01:14:09;;;;;;;2.13;0.90;;;17.80;65.40;;;;;;5134029;27;20031;-59
2021/10/04 01:16:35;;;;;;;3.20;0.80;;;17.80;65.40;;;;;;5134493;27;20027;-59
2021/10/04 01:19:00;;;;;;;2.70;0.93;;;17.70;65.40;;;;;;5115579;27;20022;-59
2021/10/04 01:21:26;;;;;;;2.58;0.95;;;17.80;65.40;;;;;;5115763;28;20046;-59
2021/10/04 01:23:51;;;;;;;2.40;0.90;;;17.70;65.40;;;;;;5133850;28;20042;-59
2021/10/04 01:26:17;;;;;;;1.67;0.80;;;17.70;65.40;;;;;;5133862;28;20019;-60
2021/10/04 01:28:42;;;;;;;2.50;0.98;;;17.80;65.50;;;;;;5134931;27;20038;-59
2021/10/04 01:31:08;;;;;;;2.15;0.90;;;17.70;65.50;;;;;;5138140;27;20023;-59
2021/10/04 01:33:34;;;;;;;1.60;0.80;;;17.70;65.40;;;;;;5138428;27;20113;-59
2021/10/04 01:35:59;;;;;;;1.95;0.90;;;17.80;65.40;;;;;;5138071;27;20102;-59
2021/10/04 01:38:25;;;;;;;1.35;0.75;;;17.70;65.40;;;;;;5137865;27;20015;-59
2021/10/04 01:40:50;;;;;;;3.13;0.70;;;17.70;65.40;;;;;;5138094;27;20038;-58
2021/10/04 01:43:16;;;;;;;2.47;1.00;;;17.70;65.40;;;;;;5138025;27;20019;-59
2021/10/04 01:45:42;;;;;;;1.58;0.80;;;17.70;65.30;;;;;;5137959;27;20023;-59
2021/10/04 01:48:07;;;;;;;2.40;0.90;;;17.70;65.30;;;;;;5137772;27;20432;-59
2021/10/04 01:50:35;;;;;;;1.15;0.80;;;17.70;65.40;;;;;;5138114;27;20048;-59
2021/10/04 01:53:01;;;;;;;3.83;1.23;;;17.70;65.40;;;;;;5137715;27;20023;-58
2021/10/04 01:55:27;;;;;;;1.80;0.77;;;17.70;65.40;;;;;;5137788;27;20106;-59
2021/10/04 01:57:52;;;;;;;1.77;0.80;;;17.70;65.40;;;;;;5137950;27;20062;-59
2021/10/04 02:00:20;;;;;;;3.30;1.08;;;17.70;65.40;;;;;;5137625;27;20099;-59
2021/10/04 02:02:50;;;;;;;2.42;0.98;;;17.70;65.40;;;;;;5137675;27;20027;-59
2021/10/04 02:05:16;;;;;;;1.13;0.63;;;17.70;65.40;;;;;;5119111;27;20386;-59
2021/10/04 02:07:42;;;;;;;3.00;1.00;;;17.70;65.40;;;;;;5137455;27;20108;-59
2021/10/04 02:10:13;;;;;;;1.30;0.80;;;17.70;65.30;;;;;;5119029;27;20462;-59
2021/10/04 02:12:40;;;;;;;1.90;0.88;;;17.70;65.40;;;;;;5137664;27;20057;-58
2021/10/04 02:15:07;;;;;;;1.70;0.90;;;17.70;65.30;;;;;;5137446;27;20027;-59
2021/10/04 02:17:34;;;;;;;1.45;0.75;;;17.70;65.40;;;;;;5137331;27;20019;-58
2021/10/04 02:19:59;;;;;;;1.55;0.65;;;17.70;65.40;;;;;;5118889;27;20023;-58
2021/10/04 02:22:25;;;;;;;2.22;0.80;;;17.70;65.30;;;;;;5137242;27;20027;-59
2021/10/04 02:24:51;;;;;;;3.08;1.17;;;17.70;65.40;;;;;;5137228;27;20034;-58
2021/10/04 02:27:17;;;;;;;2.13;1.00;;;17.70;65.40;;;;;;5137015;27;20114;-58
2021/10/04 02:29:42;;;;;;;2.20;1.10;;;17.70;65.30;;;;;;5137310;27;20023;-59
2021/10/04 02:32:08;;;;;;;1.75;0.90;;;17.70;65.30;;;;;;5137071;27;20161;-59
2021/10/04 02:34:34;;;;;;;2.00;0.77;;;17.70;65.30;;;;;;5136994;27;20516;-59
2021/10/04 02:37:00;;;;;;;2.42;1.00;;;17.70;65.30;;;;;;5118460;27;20051;-58
2021/10/04 02:39:26;;;;;;;2.63;0.80;;;17.70;65.40;;;;;;5136508;27;20107;-59
2021/10/04 02:41:52;;;;;;;2.05;0.80;;;17.70;65.30;;;;;;5136872;27;20058;-59
2021/10/04 02:44:17;;;;;;;1.60;0.70;;;17.70;65.40;;;;;;5136801;27;20024;-59
2021/10/04 02:46:43;;;;;;;1.77;0.88;;;17.70;65.30;;;;;;5136971;27;20084;-58
2021/10/04 02:49:08;;;;;;;2.20;1.00;;;17.70;65.30;;;;;;5136891;27;20039;-59
2021/10/04 02:51:34;;;;;;;2.40;1.02;;;17.70;65.40;;;;;;5136542;27;20466;-59
2021/10/04 02:54:00;;;;;;;1.70;0.90;;;17.70;65.30;;;;;;5136724;27;20045;-59
2021/10/04 02:56:25;;;;;;;2.35;0.77;;;17.60;65.40;;;;;;5136553;27;20027;-59
2021/10/04 02:58:51;;;;;;;2.55;0.85;;;17.60;65.40;;;;;;5136553;27;20103;-59
2021/10/04 03:01:16;;;;;;;2.35;0.93;;;17.60;65.30;;;;;;5136429;27;20028;-59
2021/10/04 03:03:42;;;;;;;2.05;0.93;;;17.60;65.40;;;;;;5136352;27;20079;-58
2021/10/04 03:06:07;;;;;;;1.42;0.88;;;17.60;65.30;;;;;;5136218;27;20015;-59
2021/10/04 03:08:33;;;;;;;1.77;0.85;;;17.60;65.40;;;;;;5136457;27;20435;-57
2021/10/04 03:10:59;;;;;;;2.08;0.77;;;17.60;65.30;;;;;;5136437;27;20034;-59
2021/10/04 03:13:24;;;;;;;1.40;0.73;;;17.60;65.40;;;;;;5136477;27;20027;-59
2021/10/04 03:15:50;;;;;;;1.35;0.60;;;17.70;65.30;;;;;;5136189;27;20094;-58
2021/10/04 03:18:15;;;;;;;2.75;1.10;;;17.60;65.30;;;;;;5136436;27;20062;-60
2021/10/04 03:20:41;;;;;;;3.42;1.02;;;17.60;65.40;;;;;;5136257;27;20075;-59
2021/10/04 03:23:07;;;;;;;2.55;0.98;;;17.60;65.30;;;;;;5117638;27;20019;-59
2021/10/04 03:25:33;;;;;;;0.85;0.60;;;17.60;65.40;;;;;;5136187;27;20023;-60
2021/10/04 03:27:59;;;;;;;1.42;0.80;;;17.60;65.40;;;;;;5135920;27;20368;-59
2021/10/04 03:30:24;;;;;;;4.18;1.25;;;17.60;65.30;;;;;;5135893;27;20020;-59
2021/10/04 03:32:50;;;;;;;1.60;0.70;;;17.60;65.40;;;;;;5135885;27;20035;-59
2021/10/04 03:35:17;;;;;;;1.33;0.65;;;17.60;65.40;;;;;;5135735;27;20054;-59
2021/10/04 03:37:43;;;;;;;2.03;1.13;;;17.60;65.40;;;;;;5135658;27;20471;-59
2021/10/04 03:40:10;;;;;;;1.48;0.90;;;17.60;65.30;;;;;;5135609;27;20072;-59
2021/10/04 03:42:36;;;;;;;1.77;0.80;;;17.60;65.40;;;;;;5135679;27;20065;-59
2021/10/04 03:45:03;;;;;;;1.02;0.60;;;17.60;65.40;;;;;;5117212;27;20027;-58
2021/10/04 03:47:29;;;;;;;2.28;0.60;;;17.60;65.40;;;;;;5135392;27;20037;-59
2021/10/04 03:49:54;;;;;;;2.33;0.95;;;17.60;65.40;;;;;;5135471;27;20106;-59
2021/10/04 03:52:20;;;;;;;2.88;0.80;;;17.60;65.30;;;;;;5134759;27;20149;-59
2021/10/04 03:54:46;;;;;;;1.30;0.65;;;17.60;65.30;;;;;;5135722;27;20023;-60
2021/10/04 03:57:11;;;;;;;2.08;1.00;;;17.60;65.30;;;;;;5135365;27;20533;-58
2021/10/04 03:59:37;;;;;;;1.52;0.82;;;17.60;65.30;;;;;;5135389;27;20416;-58
2021/10/04 04:02:03;;;;;;;2.63;0.70;;;17.60;65.30;;;;;;5135198;27;20466;-59
2021/10/04 04:04:29;;;;;;;1.98;1.05;;;17.60;65.30;;;;;;5135083;27;20023;-58
2021/10/04 04:06:54;;;;;;;1.50;0.55;;;17.60;65.30;;;;;;5135068;27;20395;-58
2021/10/04 04:09:20;;;;;;;1.75;0.90;;;17.60;65.30;;;;;;5134983;27;20072;-59
2021/10/04 04:11:45;;;;;;;2.13;0.82;;;17.50;65.30;;;;;;5135139;27;20026;-58
2021/10/04 04:14:11;;;;;;;2.38;0.95;;;17.60;65.30;;;;;;5135102;27;20027;-58
2021/10/04 04:16:37;;;;;;;1.70;0.80;;;17.60;65.30;;;;;;5135014;27;20470;-59
2021/10/04 04:19:02;;;;;;;1.98;0.70;;;17.50;65.30;;;;;;5134900;27;20423;-58
2021/10/04 04:21:28;;;;;;;1.52;0.80;;;17.60;65.30;;;;;;5135080;27;20023;-59
2021/10/04 04:23:53;;;;;;;2.45;0.88;;;17.50;65.30;;;;;;5134892;27;20027;-59
2021/10/04 04:26:19;;;;;;;1.25;0.68;;;17.50;65.30;;;;;;5135174;27;20064;-59
2021/10/04 04:28:44;;;;;;;3.33;0.75;;;17.60;65.30;;;;;;5134934;27;20035;-59
2021/10/04 04:31:10;;;;;;;1.52;0.80;;;17.60;65.30;;;;;;5134672;27;20076;-59
2021/10/04 04:33:36;;;;;;;2.30;0.98;;;17.60;65.30;;;;;;5134548;27;20015;-59
2021/10/04 04:36:01;;;;;;;1.98;0.55;;;17.60;65.30;;;;;;5135171;27;20030;-59
2021/10/04 04:38:27;;;;;;;1.20;0.65;;;17.50;65.30;;;;;;5134493;27;20099;-60
2021/10/04 04:40:52;;;;;;;1.35;0.80;;;17.60;65.30;;;;;;5134764;27;20054;-59
2021/10/04 04:43:18;;;;;;;2.67;0.98;;;17.50;65.30;;;;;;5134550;27;20054;-59
2021/10/04 04:45:43;;;;;;;1.27;0.77;;;17.50;65.30;;;;;;5134410;27;20479;-58
2021/10/04 04:48:09;;;;;;;0.88;0.60;;;17.50;65.20;;;;;;5134265;27;20080;-60
2021/10/04 04:50:35;;;;;;;1.23;0.80;;;17.50;65.20;;;;;;5134385;27;20533;-59
2021/10/04 04:53:01;;;;;;;1.83;0.73;;;17.50;65.30;;;;;;5134447;27;20106;-59
2021/10/04 04:55:26;;;;;;;1.23;0.60;;;17.50;65.20;;;;;;5134455;27;20023;-59
2021/10/04 04:57:52;;;;;;;1.58;0.70;;;17.50;65.30;;;;;;5134285;27;20096;-59
2021/10/04 05:00:18;;;;;;;1.02;0.60;;;17.50;65.30;;;;;;5134162;27;20474;-62
2021/10/04 05:02:45;;;;;;;1.55;0.80;;;17.50;65.30;;;;;;5134066;27;20029;-60
2021/10/04 05:05:12;;;;;;;1.55;0.70;;;17.50;65.30;;;;;;5134185;27;20027;-59
2021/10/04 05:07:38;;;;;;;2.53;0.88;;;17.50;65.30;;;;;;5134443;27;20046;-59
2021/10/04 05:10:06;;;;;;;2.67;0.75;;;17.50;65.30;;;;;;5134193;27;20019;-59
2021/10/04 05:12:32;;;;;;;7.57;0.90;;;17.50;65.30;;;;;;5134172;27;20046;-60
2021/10/04 05:14:58;;;;;;;1.75;0.70;;;17.50;65.20;;;;;;5115823;28;20027;-60
2021/10/04 05:17:23;;;;;;;1.98;0.80;;;17.50;65.30;;;;;;5133895;27;20046;-61
2021/10/04 05:19:49;;;;;;;2.00;0.82;;;17.50;65.30;;;;;;5133812;27;20030;-59
2021/10/04 05:22:14;;;;;;;1.38;0.60;;;17.50;65.30;;;;;;5134086;27;20011;-59
2021/10/04 05:24:40;;;;;;;1.33;0.65;;;17.50;65.20;;;;;;5133969;28;20058;-59
2021/10/04 05:27:06;;;;;;;1.33;0.73;;;17.50;65.20;;;;;;5133760;28;20034;-59
2021/10/04 05:29:31;;;;;;;1.05;0.60;;;17.50;65.20;;;;;;5133869;28;20039;-60
2021/10/04 05:31:57;;;;;;;1.95;0.88;;;17.50;65.20;;;;;;5133764;28;20366;-59
2021/10/04 05:34:22;;;;;;;1.85;0.70;;;17.50;65.20;;;;;;5133775;28;20020;-59
2021/10/04 05:36:48;;;;;;;2.30;0.80;;;17.50;65.20;;;;;;5133745;28;20023;-60
2021/10/04 05:39:13;;;;;;;0.95;0.60;;;17.50;65.30;;;;;;5133722;28;20053;-60
2021/10/04 05:41:39;;;;;;;1.70;0.93;;;17.50;65.20;;;;;;5134006;28;20355;-59
2021/10/04 05:44:05;;;;;;;2.13;0.70;;;17.50;65.20;;;;;;5133764;28;20110;-59
2021/10/04 05:46:31;;;;;;;1.38;0.60;;;17.50;65.20;;;;;;5133603;28;20024;-59
2021/10/04 05:48:56;;;;;;;1.70;0.90;;;17.50;65.20;;;;;;5133528;28;20035;-59
2021/10/04 05:51:22;;;;;;;1.83;0.80;;;17.50;65.20;;;;;;5133559;28;20148;-60
2021/10/04 05:53:47;;;;;;;1.13;0.50;;;17.50;65.20;;;;;;5133561;28;20038;-59
2021/10/04 05:56:13;;;;;;;1.92;0.70;;;17.50;65.20;;;;;;5133548;28;20019;-59
2021/10/04 05:58:39;;;;;;;1.83;0.80;;;17.50;65.20;;;;;;5133872;28;20027;-59
2021/10/04 06:01:05;;;;;;;1.23;0.68;;;17.50;65.20;;;;;;5115094;28;20023;-59
2021/10/04 06:03:30;;;;;;;1.60;0.70;;;17.50;65.10;;;;;;5133559;28;20029;-60
2021/10/04 06:05:56;;;;;;;3.53;0.80;;;17.50;65.10;;;;;;5133563;28;20027;-60
2021/10/04 06:08:22;;;;;;;1.45;0.60;;;17.50;65.20;;;;;;5133544;28;20067;-59
2021/10/04 06:10:48;;;;;;;0.70;0.50;;;17.50;65.20;;;;;;5115008;28;20059;-60
2021/10/04 06:13:13;;;;;;;0.95;0.50;;;17.50;65.20;;;;;;5133771;28;20038;-59
2021/10/04 06:15:39;;;;;;;3.15;0.88;;;17.50;65.30;;;;;;5125563;27;20475;-59
2021/10/04 06:18:05;;;;;;;2.05;0.98;;;17.30;64.00;;;;;;5114836;27;20027;-60
2021/10/04 06:20:30;;;;;;;2.40;0.63;;;17.10;64.20;;;;;;5097640;28;20039;-59
2021/10/04 06:22:56;;;;;;;1.98;0.75;;;17.10;64.50;;;;;;5115792;28;20028;-59
2021/10/04 06:25:22;;;;;;;6.45;0.85;;;17.10;64.40;;;;;;5116052;28;20015;-59
2021/10/04 06:27:49;;;;;;;2.70;0.60;;;17.00;64.30;;;;;;5097628;28;20085;-58
2021/10/04 06:30:18;;;;;;;1.50;0.63;;;17.00;64.40;;;;;;5115945;28;20121;-59
2021/10/04 06:32:44;;;;;;;2.42;0.80;;;16.90;64.60;;;;;;5115535;28;20027;-59
2021/10/04 06:35:10;;;;;;;5.72;1.45;;;17.00;64.50;;;;;;5115477;27;20038;-60
2021/10/04 06:37:35;;;;;;;4.32;0.90;;;16.80;64.60;;;;;;5124902;27;20030;-60
2021/10/04 06:40:01;;;;;;;4.25;1.00;;;16.90;64.70;;;;;;5116691;27;20095;-60
2021/10/04 06:42:27;;;;;;;3.55;1.10;;;16.90;64.60;;;;;;5134727;27;20027;-60
2021/10/04 06:44:52;;;;;;;4.25;1.00;;;16.80;64.70;;;;;;5135095;27;20019;-60
2021/10/04 06:47:18;;;;;;;5.68;1.33;;;16.80;64.60;;;;;;5116526;27;20584;-58
2021/10/04 06:49:44;;;;;;;5.35;0.90;;;16.70;64.70;;;;;;5128970;27;20032;-59
2021/10/04 06:52:10;;;;;;;2.70;0.80;;;16.80;64.40;;;;;;5115475;27;20039;-59
2021/10/04 06:54:35;;;;;;;3.08;0.90;;;16.80;64.50;;;;;;5113920;27;20047;-58
2021/10/04 06:57:01;;;;;;;2.92;0.90;;;16.80;64.60;;;;;;5126825;27;20375;-61
2021/10/04 06:59:27;;;;;;;4.32;0.80;;;16.80;64.60;;;;;;5125690;27;20030;-60
2021/10/04 07:01:52;;;;;;;3.38;0.65;;;17.10;65.00;;;;;;5113284;28;20020;-60
2021/10/04 07:04:18;;;;;;;3.88;1.17;;;17.10;64.90;;;;;;5114467;28;20051;-61
2021/10/04 07:06:44;;;;;;;2.78;0.68;;;17.20;64.70;;;;;;5115616;27;20120;-60
2021/10/04 07:09:10;;;;;;;4.32;1.10;;;17.20;64.60;;;;;;5114166;28;20040;-60
2021/10/04 07:11:36;;;;;;;3.05;0.88;;;17.30;64.50;;;;;;5114153;28;20028;-60
2021/10/04 07:14:02;;;;;;;4.35;0.70;;;17.30;64.50;;;;;;5114167;28;20036;-60
2021/10/04 07:16:27;;;;;;;3.00;0.68;;;17.30;64.50;;;;;;5114168;28;20069;-59
2021/10/04 07:18:53;;;;;;;4.63;0.70;;;17.30;64.40;;;;;;5096249;28;20031;-59
2021/10/04 07:21:18;;;;;;;1.88;0.57;;;17.30;64.30;;;;;;5124283;27;20056;-59
2021/10/04 07:23:45;;;;;;;2.30;0.90;;;17.40;64.40;;;;;;5134475;27;20035;-59
2021/10/04 07:26:12;;;;;;;2.28;0.77;;;17.40;64.30;;;;;;5133191;27;20027;-59
2021/10/04 07:28:38;;;;;;;4.35;0.80;;;17.50;64.30;;;;;;5131481;27;20478;-58
2021/10/04 07:31:04;;;;;;;1.58;0.50;;;17.50;64.10;;;;;;5117855;27;20193;-57
2021/10/04 07:33:29;;;;;;;3.90;0.80;;;17.50;64.00;;;;;;5117447;27;20390;-58
2021/10/04 07:35:55;;;;;;;1.67;0.68;;;17.50;64.00;;;;;;5133767;27;20374;-58
2021/10/04 07:38:22;;;;;;;2.70;1.00;;;17.50;64.00;;;;;;5133356;27;20106;-57
2021/10/04 07:40:48;;;;;;;2.97;0.85;;;17.50;64.00;;;;;;5134108;27;20456;-58
2021/10/04 07:43:14;;;;;;;5.07;0.68;;;17.60;64.00;;;;;;5118854;27;20462;-58
2021/10/04 07:45:40;;;;;;;2.75;0.60;;;17.60;63.90;;;;;;5113217;27;20114;-58
2021/10/04 07:48:06;;;;;;;2.33;0.82;;;17.60;63.90;;;;;;5113593;28;20431;-59
2021/10/04 07:50:33;;;;;;;2.67;0.90;;;17.70;63.90;;;;;;5114631;27;20028;-59
2021/10/04 07:52:58;;;;;;;3.90;0.80;;;17.70;63.90;;;;;;5112235;28;20527;-58
2021/10/04 07:55:25;;;;;;;4.45;0.77;;;17.70;63.90;;;;;;5094675;28;20410;-58
2021/10/04 07:57:51;;;;;;;3.60;0.80;;;17.70;63.90;;;;;;5112398;28;20035;-59
2021/10/04 08:00:19;;;;;;;2.08;0.90;;;17.70;63.90;;;;;;5130955;27;20110;-59
2021/10/04 08:02:44;;;;;;;3.67;1.00;;;17.70;64.00;;;;;;5133833;27;20081;-58
2021/10/04 08:05:11;;;;;;;3.03;0.90;;;17.80;63.80;;;;;;5133909;27;20486;-56
2021/10/04 08:07:37;;;;;;;2.60;0.65;;;17.80;63.90;;;;;;5124907;27;20039;-58
2021/10/04 08:10:05;;;;;;;8.25;0.70;;;17.80;63.80;;;;;;5116459;27;20047;-59
2021/10/04 08:12:32;;;;;;;3.05;0.82;;;17.90;63.70;;;;;;5133421;27;20054;-59
2021/10/04 08:14:57;;;;;;;2.92;0.65;;;17.90;63.90;;;;;;5133837;27;20052;-56
2021/10/04 08:17:24;;;;;;;2.55;0.73;;;17.90;63.90;;;;;;5115302;27;20491;-59
2021/10/04 08:19:50;;;;;;;5.00;0.98;;;18.00;63.70;;;;;;5133277;27;20095;-55
2021/10/04 08:22:16;;;;;;;1.42;0.50;;;18.00;63.70;;;;;;5119167;27;20390;-56
2021/10/04 08:24:42;;;;;;;2.78;0.40;;;18.00;63.60;;;;;;5111943;28;20032;-59
2021/10/04 08:27:07;;;;;;;3.65;0.70;;;17.90;63.70;;;;;;5111627;28;20076;-58
2021/10/04 08:29:33;;;;;;;3.58;0.70;;;17.90;63.70;;;;;;5112237;28;20119;-58
2021/10/04 08:31:59;;;;;;;2.80;0.60;;;18.00;63.70;;;;;;5109335;28;20157;-57
2021/10/04 08:34:24;;;;;;;4.13;1.45;;;18.00;63.70;;;;;;5110858;28;20043;-58
2021/10/04 08:36:50;;;;;;;3.08;0.80;;;18.00;63.80;;;;;;5110214;28;20046;-56
2021/10/04 08:39:16;;;;;;;2.58;0.73;;;18.00;63.80;;;;;;5109594;28;20048;-57
2021/10/04 08:41:42;;;;;;;8.50;0.82;;;18.00;63.80;;;;;;5111706;28;20080;-58
2021/10/04 08:44:09;;;;;;;2.28;0.70;;;18.00;63.90;;;;;;5093614;28;20024;-57
2021/10/04 08:46:41;;;;;;;4.32;0.98;;;18.00;63.80;;;;;;5113297;27;20035;-57
2021/10/04 08:49:07;;;;;;;5.97;1.00;;;18.00;63.80;;;;;;5117017;27;20108;-57
2021/10/04 08:51:34;;;;;;;4.22;0.80;;;18.00;63.80;;;;;;5111700;27;20036;-59
2021/10/04 08:54:00;;;;;;;2.75;0.90;;;18.00;63.80;;;;;;5098522;28;20043;-59
2021/10/04 08:56:25;;;;;;;8.25;0.80;;;18.00;63.80;;;;;;5116089;27;20016;-56
2021/10/04 08:58:51;;;;;;;2.72;0.70;;;18.00;63.70;;;;;;5131086;27;20030;-56
2021/10/04 09:01:24;;;;;;;2.03;0.65;;;18.00;63.80;;;;;;5121946;27;20119;-57
2021/10/04 09:04:01;;;;;;;2.78;0.60;;;18.00;63.80;;;;;;5122537;27;20054;-58
2021/10/04 09:06:29;;;;;;;2.45;0.50;;;18.10;63.80;;;;;;5115053;27;20019;-57
2021/10/04 09:09:04;;;;;;;2.90;0.60;;;18.00;63.80;;;;;;5105334;27;20038;-54
2021/10/04 09:11:41;;;;;;;2.38;0.68;;;18.10;63.60;;;;;;5102991;27;20028;-52
2021/10/04 09:14:15;;;;;;;3.35;0.70;;;18.20;63.50;;;;;;5112792;28;20032;-59
2021/10/04 09:16:50;;;;;;;1.20;0.63;;;18.20;63.50;;;;;;5113852;27;20478;-56
2021/10/04 09:19:20;;;;;;;3.72;0.68;;;18.20;63.50;;;;;;5123974;27;20378;-55
2021/10/04 09:22:15;;;;;;;1.73;0.60;;;18.20;63.40;;;;;;5100721;28;20024;-56
2021/10/04 09:24:43;;;;;;;3.65;0.65;;;18.20;63.40;;;;;;5117807;28;20023;-57
2021/10/04 09:27:37;;;;;;;2.25;0.70;;;18.20;63.40;;;;;;5120385;28;20519;-58
2021/10/04 09:30:28;;;;;;;4.22;0.73;;;18.30;63.40;;;;;;5100433;28;20035;-58
2021/10/04 09:33:01;;;;;;;4.78;0.80;;;18.30;63.40;;;;;;5103041;28;20066;-56
2021/10/04 09:35:30;;;;;;;2.25;0.70;;;18.30;63.40;;;;;;5117556;28;20019;-56
2021/10/04 09:37:59;;;;;;;3.05;0.65;;;18.40;63.40;;;;;;5117306;28;20035;-56
2021/10/04 09:40:46;;;;;;;2.83;0.90;;;18.40;63.40;;;;;;5108725;28;20097;-55
2021/10/04 09:43:41;;;;;;;3.58;0.60;;;18.40;63.50;;;;;;5110177;28;20075;-57
2021/10/04 09:46:08;;;;;;;2.90;0.80;;;18.40;63.40;;;;;;5094740;28;20046;-57
2021/10/04 09:48:35;;;;;;;1.67;0.40;;;18.50;63.40;;;;;;5119119;28;20521;-56
2021/10/04 09:51:18;;;;;;;1.65;0.70;;;18.50;63.50;;;;;;5106835;27;20122;-55
2021/10/04 09:54:10;;;;;;;2.13;0.57;;;18.50;63.40;;;;;;5117053;27;20031;-55
2021/10/04 09:56:36;;;;;;;3.22;0.50;;;18.50;63.30;;;;;;5122430;27;20085;-56
2021/10/04 09:59:02;;;;;;;4.28;0.77;;;18.50;63.20;;;;;;5121983;27;20427;-55
2021/10/04 10:01:28;;;;;;;2.13;0.65;;;18.60;63.30;;;;;;5125236;27;20555;-59
2021/10/04 10:03:55;;;;;;;3.10;0.60;;;18.60;63.20;;;;;;5123838;27;20043;-57
2021/10/04 10:06:21;;;;;;;3.25;0.65;;;18.70;63.10;;;;;;5126140;27;20785;-57
2021/10/04 10:08:48;;;;;;;1.20;0.43;;;18.70;63.20;;;;;;5128395;27;20058;-56
2021/10/04 10:11:17;;;;;;;2.35;0.75;;;18.70;63.20;;;;;;5111405;27;20023;-57
2021/10/04 10:13:44;;;;;;;3.15;0.50;;;18.70;63.10;;;;;;5123768;27;20122;-56
2021/10/04 10:16:18;;;;;;;5.57;0.82;;;18.80;62.90;;;;;;5102568;27;20106;-56
2021/10/04 10:19:04;;;;;;;6.00;0.80;;;18.80;63.00;;;;;;5114133;28;20051;-56
2021/10/04 10:21:32;;;;;;;2.60;0.80;;;18.80;63.00;;;;;;5111818;27;20047;-56
2021/10/04 10:24:12;;;;;;;1.50;0.60;;;18.80;63.00;;;;;;5115004;27;20023;-58
2021/10/04 10:26:58;;;;;;;2.88;0.60;;;18.70;63.10;;;;;;5118697;27;20099;-56
2021/10/04 10:29:27;;;;;;;2.03;0.43;;;18.70;63.20;;;;;;5114021;27;20511;-56
2021/10/04 10:31:55;;;;;;;3.42;0.50;;;18.70;63.20;;;;;;5112918;27;20028;-55
2021/10/04 10:34:30;;;;;;;2.15;0.60;;;18.70;63.20;;;;;;5114701;27;20257;-56
2021/10/04 10:37:10;;;;;;;3.35;0.80;;;18.80;63.20;;;;;;5127285;27;20370;-58
2021/10/04 10:39:54;;;;;;;2.33;0.73;;;18.80;63.10;;;;;;5111254;27;20043;-56
2021/10/04 10:42:26;;;;;;;4.95;1.08;;;18.80;63.10;;;;;;5117534;27;20028;-57
2021/10/04 10:44:57;;;;;;;3.42;0.50;;;18.90;63.00;;;;;;5108247;27;20076;-56
2021/10/04 10:47:35;;;;;;;3.35;0.57;;;18.90;62.90;;;;;;5116293;27;20023;-55
2021/10/04 10:50:34;;;;;;;2.30;0.63;;;18.90;62.90;;;;;;5100198;27;20135;-57
2021/10/04 10:52:59;;;;;;;3.10;0.60;;;19.00;63.00;;;;;;5111886;27;20044;-57
2021/10/04 10:55:28;;;;;;;2.42;1.20;;;19.00;63.10;;;;;;5121821;27;20032;-51
2021/10/04 10:58:04;;;;;;;4.68;0.73;;;19.00;63.10;;;;;;5117076;27;20027;-57
2021/10/04 11:00:32;;;;;;;5.50;0.65;;;19.00;63.00;;;;;;5099464;27;20032;-56
2021/10/04 11:03:03;;;;;;;3.35;0.80;;;19.00;62.90;;;;;;5118976;27;20519;-56
2021/10/04 11:05:35;;;;;;;3.70;0.90;;;19.10;62.90;;;;;;5119981;27;20036;-58
2021/10/04 11:08:01;;;;;;;1.52;0.70;;;19.10;62.90;;;;;;5115939;27;20035;-54
2021/10/04 11:10:27;;;;;;;3.35;0.90;;;19.10;62.90;;;;;;5099611;27;20522;-55
2021/10/04 11:13:08;;;;;;;4.30;1.10;;;19.10;63.00;;;;;;5117073;27;20031;-57
2021/10/04 11:15:35;;;;;;;4.45;0.57;;;19.10;63.10;;;;;;5109325;28;20035;-56
2021/10/04 11:18:00;;;;;;;2.50;0.60;;;19.20;63.00;;;;;;5122289;27;20023;-58
2021/10/04 11:20:27;;;;;;;3.03;0.85;;;19.30;62.90;;;;;;5113432;27;20030;-55
2021/10/04 11:23:06;;;;;;;1.88;0.50;;;19.30;63.10;;;;;;5112605;27;20027;-55
2021/10/04 11:25:43;;;;;;;3.28;0.80;;;19.40;62.90;;;;;;5123967;27;20034;-56
2021/10/04 11:28:10;;;;;;;3.05;0.88;;;19.50;62.70;;;;;;5121945;27;20043;-57
2021/10/04 11:31:04;;;;;;;1.95;0.70;;;19.50;62.50;;;;;;5100232;27;20494;-55
2021/10/04 11:33:34;;;;;;;2.08;0.73;;;19.60;62.30;;;;;;5126459;27;20046;-55
2021/10/04 11:36:03;;;;;;;5.93;0.70;;;19.70;62.20;;;;;;5096533;27;20451;-59
2021/10/04 11:38:30;;;;;;;4.60;0.60;;;19.90;61.90;;;;;;5123543;27;20550;-57
2021/10/04 11:40:57;;;;;;;2.47;0.80;;;19.90;61.90;;;;;;5113603;27;20050;-57
2021/10/04 11:43:23;;;;;;;1.80;0.73;;;20.00;61.90;;;;;;5121141;27;20030;-56
2021/10/04 11:45:50;;;;;;;1.63;0.47;;;20.00;61.70;;;;;;5117450;27;20039;-55
2021/10/04 11:48:30;;;;;;;4.47;0.55;;;20.10;61.70;;;;;;5119930;27;20031;-56
2021/10/04 11:50:56;;;;;;;3.92;1.02;;;20.20;61.60;;;;;;5102336;27;20024;-59
2021/10/04 11:53:22;;;;;;;5.03;0.80;;;20.20;61.70;;;;;;5117012;27;20078;-54
2021/10/04 11:55:58;;;;;;;4.07;0.57;;;20.20;61.60;;;;;;5106712;27;20507;-56
2021/10/04 11:58:24;;;;;;;3.10;0.80;;;20.30;61.40;;;;;;5122800;27;20039;-56
2021/10/04 12:00:49;;;;;;;2.35;0.85;;;20.30;61.50;;;;;;5103178;27;20024;-58
2021/10/04 12:03:32;;;;;;;2.35;0.60;;;20.40;61.40;;;;;;5125694;27;20513;-52
2021/10/04 12:06:00;;;;;;;9.60;0.82;;;20.40;61.50;;;;;;5115705;27;20029;-60
2021/10/04 12:08:39;;;;;;;2.92;0.57;;;20.40;61.60;;;;;;5117697;27;20090;-58
2021/10/04 12:11:07;;;;;;;2.28;0.70;;;20.30;61.80;;;;;;5097111;27;20099;-60
2021/10/04 12:13:34;;;;;;;1.30;0.50;;;20.30;61.90;;;;;;5100631;27;20038;-58
2021/10/04 12:16:09;;;;;;;3.83;0.80;;;20.30;62.20;;;;;;5115433;27;20113;-58
2021/10/04 12:18:45;;;;;;;2.60;0.82;;;20.20;62.30;;;;;;5111271;28;20030;-59
2021/10/04 12:21:22;;;;;;;1.77;0.60;;;20.30;62.40;;;;;;5114956;27;20043;-59
2021/10/04 12:24:15;;;;;;;3.92;0.90;;;20.30;62.40;;;;;;5117003;27;20027;-60
2021/10/04 12:27:10;;;;;;;3.30;0.60;;;20.20;62.80;;;;;;5126858;27;20510;-59
2021/10/04 12:29:54;;;;;;;2.25;0.60;;;20.30;62.80;;;;;;5115639;27;20570;-60
2021/10/04 12:32:46;;;;;;;3.33;0.65;;;20.30;62.80;;;;;;5126140;27;20030;-60
2021/10/04 12:35:23;;;;;;;2.67;0.52;;;20.30;62.80;;;;;;5110047;27;20043;-59
2021/10/04 12:38:00;;;;;;;3.75;0.60;;;20.30;62.70;;;;;;5112775;28;20494;-60
2021/10/04 12:40:40;;;;;;;3.50;0.75;;;20.30;62.90;;;;;;5114010;27;20058;-59
2021/10/04 12:43:24;;;;;;;3.03;0.65;;;20.30;62.90;;;;;;5128560;27;20019;-60
2021/10/04 12:46:11;;;;;;;2.88;0.68;;;20.30;63.00;;;;;;5114443;27;20027;-59
2021/10/04 12:48:42;;;;;;;3.45;0.70;;;20.20;63.20;;;;;;5115056;27;20035;-59
2021/10/04 12:51:10;;;;;;;2.97;0.75;;;20.20;63.10;;;;;;5115206;27;20072;-60
2021/10/04 12:53:48;;;;;;;3.25;0.77;;;20.20;63.10;;;;;;5118714;27;20079;-57